sensor_id;sensor_type;location;lat;lon;timestamp;pressure;altitude;pressure_sealevel;temperature;humidity
32492;BME280;20605;49.742;18.802;2023-02-10T00:00:26;99458.08;;;-2.64;87.73
32492;BME280;20605;49.742;18.802;2023-02-10T00:02:51;99454.05;;;-2.66;88.39
32492;BME280;20605;49.742;18.802;2023-02-10T00:05:17;99451.46;;;-2.68;88.73
32492;BME280;20605;49.742;18.802;2023-02-10T00:07:43;99449.53;;;-2.68;87.96
32492;BME280;20605;49.742;18.802;2023-02-10T00:10:09;99451.38;;;-2.69;87.81
32492;BME280;20605;49.742;18.802;2023-02-10T00:12:38;99454.36;;;-2.71;87.65
32492;BME280;20605;49.742;18.802;2023-02-10T00:15:05;99454.72;;;-2.70;88.07
32492;BME280;20605;49.742;18.802;2023-02-10T00:17:31;99462.48;;;-2.68;88.01
32492;BME280;20605;49.742;18.802;2023-02-10T00:19:56;99476.72;;;-2.69;87.97
32492;BME280;20605;49.742;18.802;2023-02-10T00:22:22;99487.77;;;-2.72;87.85
32492;BME280;20605;49.742;18.802;2023-02-10T00:24:48;99482.05;;;-2.78;87.79
32492;BME280;20605;49.742;18.802;2023-02-10T00:27:14;99474.79;;;-2.81;87.98
32492;BME280;20605;49.742;18.802;2023-02-10T00:29:40;99481.61;;;-2.80;88.45
32492;BME280;20605;49.742;18.802;2023-02-10T00:32:06;99481.59;;;-2.84;88.27
32492;BME280;20605;49.742;18.802;2023-02-10T00:34:31;99480.84;;;-2.86;88.73
32492;BME280;20605;49.742;18.802;2023-02-10T00:36:57;99478.44;;;-2.86;88.89
32492;BME280;20605;49.742;18.802;2023-02-10T00:39:23;99480.33;;;-2.85;88.89
32492;BME280;20605;49.742;18.802;2023-02-10T00:41:49;99475.73;;;-2.86;89.01
32492;BME280;20605;49.742;18.802;2023-02-10T00:44:15;99477.89;;;-2.87;89.06
32492;BME280;20605;49.742;18.802;2023-02-10T00:46:40;99469.41;;;-2.89;89.62
32492;BME280;20605;49.742;18.802;2023-02-10T00:49:06;99461.58;;;-2.90;89.46
32492;BME280;20605;49.742;18.802;2023-02-10T00:51:34;99456.30;;;-2.94;90.00
32492;BME280;20605;49.742;18.802;2023-02-10T00:54:01;99454.11;;;-2.97;90.16
32492;BME280;20605;49.742;18.802;2023-02-10T00:56:27;99450.12;;;-2.95;90.48
32492;BME280;20605;49.742;18.802;2023-02-10T00:58:53;99451.71;;;-2.94;90.73
32492;BME280;20605;49.742;18.802;2023-02-10T01:01:19;99443.88;;;-2.94;90.97
32492;BME280;20605;49.742;18.802;2023-02-10T01:03:46;99439.48;;;-2.94;91.06
32492;BME280;20605;49.742;18.802;2023-02-10T01:06:13;99439.69;;;-2.93;91.56
32492;BME280;20605;49.742;18.802;2023-02-10T01:08:42;99430.74;;;-2.92;91.09
32492;BME280;20605;49.742;18.802;2023-02-10T01:11:10;99424.84;;;-2.91;91.58
32492;BME280;20605;49.742;18.802;2023-02-10T01:13:37;99418.05;;;-2.90;91.43
32492;BME280;20605;49.742;18.802;2023-02-10T01:16:12;99406.69;;;-2.90;91.23
32492;BME280;20605;49.742;18.802;2023-02-10T01:18:40;99402.11;;;-2.90;91.20
32492;BME280;20605;49.742;18.802;2023-02-10T01:21:11;99399.23;;;-2.89;91.02
32492;BME280;20605;49.742;18.802;2023-02-10T01:23:37;99390.73;;;-2.90;91.02
32492;BME280;20605;49.742;18.802;2023-02-10T01:26:03;99374.82;;;-2.88;91.43
32492;BME280;20605;49.742;18.802;2023-02-10T01:28:31;99355.58;;;-2.85;91.45
32492;BME280;20605;49.742;18.802;2023-02-10T01:30:57;99356.23;;;-2.86;91.46
32492;BME280;20605;49.742;18.802;2023-02-10T01:33:23;99357.05;;;-2.83;91.50
32492;BME280;20605;49.742;18.802;2023-02-10T01:35:49;99357.50;;;-2.81;90.89
32492;BME280;20605;49.742;18.802;2023-02-10T01:38:15;99365.55;;;-2.83;91.34
32492;BME280;20605;49.742;18.802;2023-02-10T01:40:41;99363.77;;;-2.85;91.49
32492;BME280;20605;49.742;18.802;2023-02-10T01:43:14;99374.01;;;-2.84;91.42
32492;BME280;20605;49.742;18.802;2023-02-10T01:45:40;99378.76;;;-2.84;91.08
32492;BME280;20605;49.742;18.802;2023-02-10T01:48:08;99375.60;;;-2.83;90.35
32492;BME280;20605;49.742;18.802;2023-02-10T01:50:47;99390.51;;;-2.80;90.27
32492;BME280;20605;49.742;18.802;2023-02-10T01:53:16;99393.14;;;-2.75;89.70
32492;BME280;20605;49.742;18.802;2023-02-10T01:55:44;99395.86;;;-2.74;89.58
32492;BME280;20605;49.742;18.802;2023-02-10T01:58:14;99403.54;;;-2.78;89.50
32492;BME280;20605;49.742;18.802;2023-02-10T02:00:41;99398.40;;;-2.82;89.53
32492;BME280;20605;49.742;18.802;2023-02-10T02:03:07;99395.86;;;-2.85;89.44
32492;BME280;20605;49.742;18.802;2023-02-10T02:05:40;99396.34;;;-2.86;89.56
32492;BME280;20605;49.742;18.802;2023-02-10T02:08:16;99388.98;;;-2.87;89.51
32492;BME280;20605;49.742;18.802;2023-02-10T02:11:00;99390.36;;;-2.90;89.53
32492;BME280;20605;49.742;18.802;2023-02-10T02:18:58;99382.44;;;-2.92;89.32
32492;BME280;20605;49.742;18.802;2023-02-10T02:24:33;99383.79;;;-2.85;89.41
32492;BME280;20605;49.742;18.802;2023-02-10T02:29:49;99388.15;;;-2.87;89.67
32492;BME280;20605;49.742;18.802;2023-02-10T02:32:23;99385.67;;;-2.89;89.78
32492;BME280;20605;49.742;18.802;2023-02-10T02:37:26;99405.63;;;-2.94;89.80
32492;BME280;20605;49.742;18.802;2023-02-10T02:39:55;99396.05;;;-2.96;89.67
32492;BME280;20605;49.742;18.802;2023-02-10T02:42:30;99396.16;;;-2.97;89.80
32492;BME280;20605;49.742;18.802;2023-02-10T02:45:04;99387.36;;;-3.00;89.83
32492;BME280;20605;49.742;18.802;2023-02-10T02:47:54;99383.83;;;-3.03;89.97
32492;BME280;20605;49.742;18.802;2023-02-10T03:00:49;99404.50;;;-3.08;90.48
32492;BME280;20605;49.742;18.802;2023-02-10T03:03:15;99409.27;;;-3.11;90.69
32492;BME280;20605;49.742;18.802;2023-02-10T03:05:41;99401.64;;;-3.14;90.54
32492;BME280;20605;49.742;18.802;2023-02-10T03:08:07;99402.96;;;-3.15;90.84
32492;BME280;20605;49.742;18.802;2023-02-10T03:10:33;99402.45;;;-3.15;91.63
32492;BME280;20605;49.742;18.802;2023-02-10T03:12:59;99397.40;;;-3.17;91.55
32492;BME280;20605;49.742;18.802;2023-02-10T03:15:25;99391.31;;;-3.17;91.62
32492;BME280;20605;49.742;18.802;2023-02-10T03:17:51;99392.58;;;-3.15;91.57
32492;BME280;20605;49.742;18.802;2023-02-10T03:20:17;99390.94;;;-3.14;91.16
32492;BME280;20605;49.742;18.802;2023-02-10T03:22:43;99391.98;;;-3.10;91.46
32492;BME280;20605;49.742;18.802;2023-02-10T03:25:09;99396.47;;;-3.09;91.43
32492;BME280;20605;49.742;18.802;2023-02-10T03:27:35;99397.35;;;-3.08;91.46
32492;BME280;20605;49.742;18.802;2023-02-10T03:30:01;99396.45;;;-3.06;91.21
32492;BME280;20605;49.742;18.802;2023-02-10T03:32:27;99403.57;;;-3.06;91.13
32492;BME280;20605;49.742;18.802;2023-02-10T03:34:53;99395.61;;;-3.09;91.01
32492;BME280;20605;49.742;18.802;2023-02-10T03:37:19;99408.34;;;-3.09;91.16
32492;BME280;20605;49.742;18.802;2023-02-10T03:39:45;99398.94;;;-3.07;91.57
32492;BME280;20605;49.742;18.802;2023-02-10T03:42:10;99409.51;;;-3.06;91.55
32492;BME280;20605;49.742;18.802;2023-02-10T03:44:37;99402.66;;;-3.07;91.54
32492;BME280;20605;49.742;18.802;2023-02-10T03:47:03;99400.11;;;-3.07;91.97
32492;BME280;20605;49.742;18.802;2023-02-10T03:49:29;99401.73;;;-3.08;92.10
32492;BME280;20605;49.742;18.802;2023-02-10T03:51:54;99397.73;;;-3.10;92.07
32492;BME280;20605;49.742;18.802;2023-02-10T03:54:20;99388.04;;;-3.11;92.19
32492;BME280;20605;49.742;18.802;2023-02-10T03:56:46;99389.45;;;-3.13;92.32
32492;BME280;20605;49.742;18.802;2023-02-10T03:59:12;99385.98;;;-3.15;92.68
32492;BME280;20605;49.742;18.802;2023-02-10T04:01:38;99385.42;;;-3.16;92.66
32492;BME280;20605;49.742;18.802;2023-02-10T04:04:03;99385.95;;;-3.15;92.70
32492;BME280;20605;49.742;18.802;2023-02-10T04:06:29;99390.14;;;-3.16;92.80
32492;BME280;20605;49.742;18.802;2023-02-10T04:08:55;99390.22;;;-3.18;92.42
32492;BME280;20605;49.742;18.802;2023-02-10T04:11:21;99391.00;;;-3.20;92.16
32492;BME280;20605;49.742;18.802;2023-02-10T04:13:47;99397.57;;;-3.21;92.35
32492;BME280;20605;49.742;18.802;2023-02-10T04:16:15;99402.60;;;-3.22;92.42
32492;BME280;20605;49.742;18.802;2023-02-10T04:18:42;99397.98;;;-3.23;92.25
32492;BME280;20605;49.742;18.802;2023-02-10T04:21:10;99398.52;;;-3.22;92.20
32492;BME280;20605;49.742;18.802;2023-02-10T04:23:36;99395.40;;;-3.24;92.21
32492;BME280;20605;49.742;18.802;2023-02-10T04:26:02;99393.81;;;-3.25;92.09
32492;BME280;20605;49.742;18.802;2023-02-10T04:28:28;99394.42;;;-3.26;92.22
32492;BME280;20605;49.742;18.802;2023-02-10T04:30:55;99395.17;;;-3.29;92.71
32492;BME280;20605;49.742;18.802;2023-02-10T04:33:22;99395.36;;;-3.32;92.94
32492;BME280;20605;49.742;18.802;2023-02-10T04:35:51;99394.91;;;-3.34;92.41
32492;BME280;20605;49.742;18.802;2023-02-10T04:38:17;99402.30;;;-3.36;92.70
32492;BME280;20605;49.742;18.802;2023-02-10T04:40:44;99406.66;;;-3.37;92.88
32492;BME280;20605;49.742;18.802;2023-02-10T04:43:11;99408.77;;;-3.39;93.13
32492;BME280;20605;49.742;18.802;2023-02-10T04:45:37;99409.45;;;-3.42;93.06
32492;BME280;20605;49.742;18.802;2023-02-10T04:48:03;99415.10;;;-3.45;93.28
32492;BME280;20605;49.742;18.802;2023-02-10T04:50:29;99407.08;;;-3.45;93.45
32492;BME280;20605;49.742;18.802;2023-02-10T04:52:55;99418.72;;;-3.47;93.42
32492;BME280;20605;49.742;18.802;2023-02-10T04:55:21;99419.45;;;-3.49;93.58
32492;BME280;20605;49.742;18.802;2023-02-10T04:57:47;99423.28;;;-3.51;93.81
32492;BME280;20605;49.742;18.802;2023-02-10T05:00:13;99427.77;;;-3.53;93.50
32492;BME280;20605;49.742;18.802;2023-02-10T05:02:40;99424.27;;;-3.55;93.62
32492;BME280;20605;49.742;18.802;2023-02-10T05:05:06;99421.49;;;-3.56;93.73
32492;BME280;20605;49.742;18.802;2023-02-10T05:07:32;99433.46;;;-3.54;94.49
32492;BME280;20605;49.742;18.802;2023-02-10T05:09:58;99435.32;;;-3.54;94.12
32492;BME280;20605;49.742;18.802;2023-02-10T05:12:24;99435.77;;;-3.55;94.30
32492;BME280;20605;49.742;18.802;2023-02-10T05:14:51;99436.27;;;-3.56;94.65
32492;BME280;20605;49.742;18.802;2023-02-10T05:17:16;99440.33;;;-3.56;94.36
32492;BME280;20605;49.742;18.802;2023-02-10T05:19:42;99446.52;;;-3.58;94.61
32492;BME280;20605;49.742;18.802;2023-02-10T05:22:08;99435.39;;;-3.60;94.86
32492;BME280;20605;49.742;18.802;2023-02-10T05:24:37;99429.29;;;-3.63;94.64
32492;BME280;20605;49.742;18.802;2023-02-10T05:27:03;99429.67;;;-3.66;95.23
32492;BME280;20605;49.742;18.802;2023-02-10T05:29:29;99436.05;;;-3.67;95.53
32492;BME280;20605;49.742;18.802;2023-02-10T05:31:55;99433.23;;;-3.69;95.32
32492;BME280;20605;49.742;18.802;2023-02-10T05:34:21;99439.31;;;-3.70;95.34
32492;BME280;20605;49.742;18.802;2023-02-10T05:36:47;99446.77;;;-3.70;95.62
32492;BME280;20605;49.742;18.802;2023-02-10T05:39:13;99457.93;;;-3.71;95.33
32492;BME280;20605;49.742;18.802;2023-02-10T05:41:56;99471.94;;;-3.72;96.13
32492;BME280;20605;49.742;18.802;2023-02-10T05:44:25;99471.48;;;-3.75;95.86
32492;BME280;20605;49.742;18.802;2023-02-10T05:46:51;99474.06;;;-3.77;95.98
32492;BME280;20605;49.742;18.802;2023-02-10T05:49:18;99469.27;;;-3.78;96.35
32492;BME280;20605;49.742;18.802;2023-02-10T05:51:44;99466.20;;;-3.81;96.34
32492;BME280;20605;49.742;18.802;2023-02-10T05:54:10;99470.00;;;-3.83;96.26
32492;BME280;20605;49.742;18.802;2023-02-10T05:56:36;99469.36;;;-3.86;96.45
32492;BME280;20605;49.742;18.802;2023-02-10T05:59:03;99468.23;;;-3.88;96.78
32492;BME280;20605;49.742;18.802;2023-02-10T06:01:28;99478.02;;;-3.89;96.41
32492;BME280;20605;49.742;18.802;2023-02-10T06:03:54;99485.11;;;-3.90;96.39
32492;BME280;20605;49.742;18.802;2023-02-10T06:06:20;99488.91;;;-3.92;96.46
32492;BME280;20605;49.742;18.802;2023-02-10T06:08:46;99497.73;;;-3.93;96.69
32492;BME280;20605;49.742;18.802;2023-02-10T06:11:12;99502.42;;;-3.94;96.83
32492;BME280;20605;49.742;18.802;2023-02-10T06:13:38;99504.40;;;-3.95;97.00
32492;BME280;20605;49.742;18.802;2023-02-10T06:16:04;99511.16;;;-3.96;97.06
32492;BME280;20605;49.742;18.802;2023-02-10T06:18:31;99517.13;;;-3.98;97.01
32492;BME280;20605;49.742;18.802;2023-02-10T06:20:57;99519.33;;;-4.01;97.74
32492;BME280;20605;49.742;18.802;2023-02-10T06:23:24;99512.92;;;-4.04;97.07
32492;BME280;20605;49.742;18.802;2023-02-10T06:25:50;99515.66;;;-4.06;97.35
32492;BME280;20605;49.742;18.802;2023-02-10T06:28:29;99515.32;;;-4.06;97.20
32492;BME280;20605;49.742;18.802;2023-02-10T06:30:54;99518.23;;;-4.09;97.41
32492;BME280;20605;49.742;18.802;2023-02-10T06:33:20;99510.02;;;-4.10;97.40
32492;BME280;20605;49.742;18.802;2023-02-10T06:35:46;99509.52;;;-4.10;97.54
32492;BME280;20605;49.742;18.802;2023-02-10T06:38:13;99502.90;;;-4.07;97.37
32492;BME280;20605;49.742;18.802;2023-02-10T06:40:39;99504.14;;;-4.03;97.64
32492;BME280;20605;49.742;18.802;2023-02-10T06:43:05;99498.05;;;-4.00;97.75
32492;BME280;20605;49.742;18.802;2023-02-10T06:45:31;99496.88;;;-3.96;97.67
32492;BME280;20605;49.742;18.802;2023-02-10T06:47:58;99502.51;;;-3.92;98.08
32492;BME280;20605;49.742;18.802;2023-02-10T06:50:24;99500.46;;;-3.88;97.61
32492;BME280;20605;49.742;18.802;2023-02-10T06:52:50;99504.98;;;-3.77;97.97
32492;BME280;20605;49.742;18.802;2023-02-10T06:55:16;99506.61;;;-2.72;98.91
32492;BME280;20605;49.742;18.802;2023-02-10T06:57:42;99501.85;;;-1.12;97.17
32492;BME280;20605;49.742;18.802;2023-02-10T07:00:11;99492.96;;;0.28;94.42
32492;BME280;20605;49.742;18.802;2023-02-10T07:02:39;99493.20;;;1.47;91.69
32492;BME280;20605;49.742;18.802;2023-02-10T07:05:06;99503.73;;;2.55;89.73
32492;BME280;20605;49.742;18.802;2023-02-10T07:07:37;99490.55;;;3.83;89.15
32492;BME280;20605;49.742;18.802;2023-02-10T07:10:04;99485.86;;;5.12;85.71
32492;BME280;20605;49.742;18.802;2023-02-10T07:12:30;99487.70;;;6.10;84.27
32492;BME280;20605;49.742;18.802;2023-02-10T07:14:56;99483.41;;;7.06;81.05
32492;BME280;20605;49.742;18.802;2023-02-10T07:17:22;99484.16;;;7.84;78.59
32492;BME280;20605;49.742;18.802;2023-02-10T07:19:48;99481.20;;;8.11;72.70
32492;BME280;20605;49.742;18.802;2023-02-10T07:22:13;99482.68;;;8.30;72.05
32492;BME280;20605;49.742;18.802;2023-02-10T07:24:39;99484.59;;;8.73;68.83
32492;BME280;20605;49.742;18.802;2023-02-10T07:27:05;99487.75;;;8.94;68.02
32492;BME280;20605;49.742;18.802;2023-02-10T07:29:31;99487.59;;;9.26;66.80
32492;BME280;20605;49.742;18.802;2023-02-10T07:31:57;99491.73;;;9.72;65.31
32492;BME280;20605;49.742;18.802;2023-02-10T07:34:26;99498.42;;;10.19;64.12
32492;BME280;20605;49.742;18.802;2023-02-10T07:36:53;99501.09;;;10.79;63.08
32492;BME280;20605;49.742;18.802;2023-02-10T07:39:22;99508.20;;;11.36;62.93
32492;BME280;20605;49.742;18.802;2023-02-10T07:41:49;99517.36;;;12.19;62.26
32492;BME280;20605;49.742;18.802;2023-02-10T07:44:16;99518.55;;;13.04;58.97
32492;BME280;20605;49.742;18.802;2023-02-10T07:46:42;99514.38;;;12.92;57.26
32492;BME280;20605;49.742;18.802;2023-02-10T07:49:09;99513.63;;;13.63;58.70
32492;BME280;20605;49.742;18.802;2023-02-10T07:51:35;99516.45;;;14.39;58.18
32492;BME280;20605;49.742;18.802;2023-02-10T07:54:01;99520.16;;;15.26;56.78
32492;BME280;20605;49.742;18.802;2023-02-10T07:56:26;99505.98;;;16.23;55.91
32492;BME280;20605;49.742;18.802;2023-02-10T07:58:52;99496.10;;;17.04;53.82
32492;BME280;20605;49.742;18.802;2023-02-10T08:01:18;99498.50;;;17.49;50.53
32492;BME280;20605;49.742;18.802;2023-02-10T08:03:44;99500.04;;;17.45;48.19
32492;BME280;20605;49.742;18.802;2023-02-10T08:06:10;99503.43;;;17.05;46.71
32492;BME280;20605;49.742;18.802;2023-02-10T08:08:36;99501.98;;;16.48;44.99
32492;BME280;20605;49.742;18.802;2023-02-10T08:11:07;99505.63;;;16.11;44.10
32492;BME280;20605;49.742;18.802;2023-02-10T08:13:33;99514.49;;;16.26;43.51
32492;BME280;20605;49.742;18.802;2023-02-10T08:16:03;99510.20;;;15.62;41.18
32492;BME280;20605;49.742;18.802;2023-02-10T08:18:30;99514.19;;;15.05;42.65
32492;BME280;20605;49.742;18.802;2023-02-10T08:20:59;99511.69;;;15.52;44.27
32492;BME280;20605;49.742;18.802;2023-02-10T08:23:25;99512.05;;;15.65;41.09
32492;BME280;20605;49.742;18.802;2023-02-10T08:25:51;99515.33;;;14.85;41.04
32492;BME280;20605;49.742;18.802;2023-02-10T08:28:17;99518.07;;;15.34;39.27
32492;BME280;20605;49.742;18.802;2023-02-10T08:30:43;99519.44;;;14.90;41.07
32492;BME280;20605;49.742;18.802;2023-02-10T08:33:09;99516.58;;;15.73;42.76
32492;BME280;20605;49.742;18.802;2023-02-10T08:35:39;99520.35;;;16.91;42.98
32492;BME280;20605;49.742;18.802;2023-02-10T08:38:06;99518.06;;;17.85;40.62
32492;BME280;20605;49.742;18.802;2023-02-10T08:40:34;99516.42;;;18.84;41.64
32492;BME280;20605;49.742;18.802;2023-02-10T08:43:01;99510.73;;;19.44;40.14
32492;BME280;20605;49.742;18.802;2023-02-10T08:45:26;99505.63;;;19.90;40.28
32492;BME280;20605;49.742;18.802;2023-02-10T08:47:52;99511.63;;;21.19;41.57
32492;BME280;20605;49.742;18.802;2023-02-10T08:50:18;99513.05;;;22.12;40.27
32492;BME280;20605;49.742;18.802;2023-02-10T08:52:44;99516.83;;;22.48;39.17
32492;BME280;20605;49.742;18.802;2023-02-10T08:55:10;99526.02;;;22.82;38.45
32492;BME280;20605;49.742;18.802;2023-02-10T08:57:37;99525.35;;;22.78;38.31
32492;BME280;20605;49.742;18.802;2023-02-10T09:00:05;99526.86;;;22.96;37.58
32492;BME280;20605;49.742;18.802;2023-02-10T09:02:31;99525.85;;;22.88;36.54
32492;BME280;20605;49.742;18.802;2023-02-10T09:04:57;99532.33;;;23.06;37.09
32492;BME280;20605;49.742;18.802;2023-02-10T09:07:23;99532.59;;;23.14;35.70
32492;BME280;20605;49.742;18.802;2023-02-10T09:09:49;99535.31;;;23.32;35.47
32492;BME280;20605;49.742;18.802;2023-02-10T09:12:15;99534.60;;;23.19;34.30
32492;BME280;20605;49.742;18.802;2023-02-10T09:14:41;99529.92;;;23.27;35.36
32492;BME280;20605;49.742;18.802;2023-02-10T09:17:07;99530.41;;;22.98;32.26
32492;BME280;20605;49.742;18.802;2023-02-10T09:19:35;99531.89;;;21.60;31.59
32492;BME280;20605;49.742;18.802;2023-02-10T09:22:05;99530.61;;;21.03;33.57
32492;BME280;20605;49.742;18.802;2023-02-10T09:24:31;99528.00;;;21.25;33.89
32492;BME280;20605;49.742;18.802;2023-02-10T09:26:57;99523.14;;;21.34;31.35
32492;BME280;20605;49.742;18.802;2023-02-10T09:29:23;99523.41;;;20.95;32.78
32492;BME280;20605;49.742;18.802;2023-02-10T09:31:49;99520.86;;;20.38;31.51
32492;BME280;20605;49.742;18.802;2023-02-10T09:34:15;99516.55;;;19.74;33.22
32492;BME280;20605;49.742;18.802;2023-02-10T09:36:41;99513.59;;;19.82;32.96
32492;BME280;20605;49.742;18.802;2023-02-10T09:39:07;99515.12;;;19.83;32.87
32492;BME280;20605;49.742;18.802;2023-02-10T09:44:14;99520.10;;;20.78;31.90
32492;BME280;20605;49.742;18.802;2023-02-10T09:52:21;99528.98;;;21.76;34.02
32492;BME280;20605;49.742;18.802;2023-02-10T09:54:54;99528.51;;;23.17;34.01
32492;BME280;20605;49.742;18.802;2023-02-10T09:57:45;99530.40;;;24.19;34.01
32492;BME280;20605;49.742;18.802;2023-02-10T10:00:35;99532.10;;;24.73;32.19
32492;BME280;20605;49.742;18.802;2023-02-10T10:03:05;99539.10;;;24.66;32.87
32492;BME280;20605;49.742;18.802;2023-02-10T10:08:43;99526.52;;;24.21;30.67
32492;BME280;20605;49.742;18.802;2023-02-10T10:13:56;99529.83;;;20.21;31.34
32492;BME280;20605;49.742;18.802;2023-02-10T10:19:44;99527.95;;;16.75;32.35
32492;BME280;20605;49.742;18.802;2023-02-10T10:31:13;99525.48;;;10.99;36.80
32492;BME280;20605;49.742;18.802;2023-02-10T10:33:54;99522.73;;;10.03;37.75
32492;BME280;20605;49.742;18.802;2023-02-10T10:36:29;99520.00;;;9.30;39.13
32492;BME280;20605;49.742;18.802;2023-02-10T10:39:01;99522.73;;;8.86;40.51
32492;BME280;20605;49.742;18.802;2023-02-10T10:41:30;99528.64;;;8.47;41.70
32492;BME280;20605;49.742;18.802;2023-02-10T10:43:58;99531.73;;;8.14;42.61
32492;BME280;20605;49.742;18.802;2023-02-10T10:49:14;99544.48;;;7.79;44.08
32492;BME280;20605;49.742;18.802;2023-02-10T10:51:40;99549.52;;;7.57;45.01
32492;BME280;20605;49.742;18.802;2023-02-10T10:54:07;99543.73;;;7.46;44.90
32492;BME280;20605;49.742;18.802;2023-02-10T10:56:49;99543.80;;;7.16;46.02
32492;BME280;20605;49.742;18.802;2023-02-10T10:59:28;99549.56;;;7.05;47.06
32492;BME280;20605;49.742;18.802;2023-02-10T11:01:55;99545.34;;;7.14;47.19
32492;BME280;20605;49.742;18.802;2023-02-10T11:04:26;99544.84;;;7.16;47.45
32492;BME280;20605;49.742;18.802;2023-02-10T11:07:09;99538.46;;;7.01;47.44
32492;BME280;20605;49.742;18.802;2023-02-10T11:09:39;99535.35;;;6.85;48.39
32492;BME280;20605;49.742;18.802;2023-02-10T11:12:16;99535.98;;;6.96;49.19
32492;BME280;20605;49.742;18.802;2023-02-10T11:14:50;99542.60;;;7.00;48.82
32492;BME280;20605;49.742;18.802;2023-02-10T11:20:16;99529.48;;;6.84;49.19
32492;BME280;20605;49.742;18.802;2023-02-10T11:22:45;99525.19;;;6.55;49.92
32492;BME280;20605;49.742;18.802;2023-02-10T11:25:35;99526.33;;;6.48;50.68
32492;BME280;20605;49.742;18.802;2023-02-10T11:28:02;99517.00;;;6.47;50.76
32492;BME280;20605;49.742;18.802;2023-02-10T11:30:35;99519.54;;;6.43;51.20
32492;BME280;20605;49.742;18.802;2023-02-10T11:33:04;99515.00;;;6.39;51.09
32492;BME280;20605;49.742;18.802;2023-02-10T11:35:31;99512.84;;;6.32;51.90
32492;BME280;20605;49.742;18.802;2023-02-10T11:38:03;99516.46;;;6.33;52.48
32492;BME280;20605;49.742;18.802;2023-02-10T11:40:45;99515.36;;;6.40;52.72
32492;BME280;20605;49.742;18.802;2023-02-10T11:43:14;99507.24;;;6.40;53.22
32492;BME280;20605;49.742;18.802;2023-02-10T11:45:54;99509.45;;;6.52;53.87
32492;BME280;20605;49.742;18.802;2023-02-10T11:48:22;99511.42;;;6.61;53.55
32492;BME280;20605;49.742;18.802;2023-02-10T11:51:04;99512.34;;;6.48;53.76
32492;BME280;20605;49.742;18.802;2023-02-10T11:53:34;99509.98;;;6.37;53.90
32492;BME280;20605;49.742;18.802;2023-02-10T11:56:08;99510.73;;;6.29;53.93
32492;BME280;20605;49.742;18.802;2023-02-10T12:04:15;99497.76;;;6.13;55.27
32492;BME280;20605;49.742;18.802;2023-02-10T12:23:44;99487.36;;;5.40;57.89
32492;BME280;20605;49.742;18.802;2023-02-10T12:29:23;99488.91;;;5.41;58.01
32492;BME280;20605;49.742;18.802;2023-02-10T12:32:53;99489.05;;;5.28;58.04
32492;BME280;20605;49.742;18.802;2023-02-10T12:38:02;99496.79;;;5.05;59.24
32492;BME280;20605;49.742;18.802;2023-02-10T12:41:05;99499.09;;;5.09;59.93
32492;BME280;20605;49.742;18.802;2023-02-10T12:43:54;99498.05;;;5.08;59.97
32492;BME280;20605;49.742;18.802;2023-02-10T12:54:32;99502.04;;;4.91;61.90
32492;BME280;20605;49.742;18.802;2023-02-10T12:57:09;99500.52;;;5.02;61.54
32492;BME280;20605;49.742;18.802;2023-02-10T12:59:49;99504.27;;;5.10;61.83
32492;BME280;20605;49.742;18.802;2023-02-10T13:02:22;99513.66;;;5.15;61.81
32492;BME280;20605;49.742;18.802;2023-02-10T13:04:58;99510.09;;;5.17;62.10
32492;BME280;20605;49.742;18.802;2023-02-10T13:07:54;99508.15;;;5.15;62.47
32492;BME280;20605;49.742;18.802;2023-02-10T13:10:42;99514.03;;;5.17;62.47
32492;BME280;20605;49.742;18.802;2023-02-10T13:13:28;99511.94;;;5.15;62.05
32492;BME280;20605;49.742;18.802;2023-02-10T13:16:09;99507.36;;;5.09;62.30
32492;BME280;20605;49.742;18.802;2023-02-10T13:19:03;99510.13;;;5.10;63.08
32492;BME280;20605;49.742;18.802;2023-02-10T13:21:49;99515.94;;;5.08;62.73
32492;BME280;20605;49.742;18.802;2023-02-10T13:24:23;99520.91;;;4.97;63.27
32492;BME280;20605;49.742;18.802;2023-02-10T13:35:24;99517.94;;;4.76;63.45
32492;BME280;20605;49.742;18.802;2023-02-10T13:37:53;99524.14;;;4.67;63.76
32492;BME280;20605;49.742;18.802;2023-02-10T13:40:26;99527.38;;;4.66;64.22
32492;BME280;20605;49.742;18.802;2023-02-10T13:42:56;99527.30;;;4.70;64.80
32492;BME280;20605;49.742;18.802;2023-02-10T13:45:28;99525.17;;;4.76;64.49
32492;BME280;20605;49.742;18.802;2023-02-10T13:48:15;99521.08;;;4.78;64.60
32492;BME280;20605;49.742;18.802;2023-02-10T13:50:48;99526.27;;;4.79;64.58
32492;BME280;20605;49.742;18.802;2023-02-10T13:53:40;99528.74;;;4.83;64.58
32492;BME280;20605;49.742;18.802;2023-02-10T13:56:32;99532.37;;;4.93;64.85
32492;BME280;20605;49.742;18.802;2023-02-10T14:06:46;99532.52;;;4.91;64.68
32492;BME280;20605;49.742;18.802;2023-02-10T14:11:58;99531.33;;;4.74;65.28
32492;BME280;20605;49.742;18.802;2023-02-10T14:14:34;99529.97;;;4.66;65.84
32492;BME280;20605;49.742;18.802;2023-02-10T14:17:21;99534.23;;;4.56;66.21
32492;BME280;20605;49.742;18.802;2023-02-10T14:19:50;99534.81;;;4.50;66.20
32492;BME280;20605;49.742;18.802;2023-02-10T14:22:24;99533.77;;;4.41;66.37
32492;BME280;20605;49.742;18.802;2023-02-10T14:24:51;99535.93;;;4.37;67.01
32492;BME280;20605;49.742;18.802;2023-02-10T14:27:21;99536.30;;;4.40;67.16
32492;BME280;20605;49.742;18.802;2023-02-10T14:32:57;99536.20;;;4.42;67.56
32492;BME280;20605;49.742;18.802;2023-02-10T14:35:24;99537.90;;;4.41;67.46
32492;BME280;20605;49.742;18.802;2023-02-10T14:37:52;99538.16;;;4.37;67.82
32492;BME280;20605;49.742;18.802;2023-02-10T14:40:21;99540.41;;;4.38;68.19
32492;BME280;20605;49.742;18.802;2023-02-10T14:42:47;99540.55;;;4.37;68.23
32492;BME280;20605;49.742;18.802;2023-02-10T14:45:32;99542.60;;;4.28;68.27
32492;BME280;20605;49.742;18.802;2023-02-10T14:48:05;99538.07;;;4.17;69.25
32492;BME280;20605;49.742;18.802;2023-02-10T14:50:34;99543.53;;;4.07;69.30
32492;BME280;20605;49.742;18.802;2023-02-10T14:53:02;99541.50;;;4.01;69.76
32492;BME280;20605;49.742;18.802;2023-02-10T14:55:34;99541.81;;;4.00;69.59
32492;BME280;20605;49.742;18.802;2023-02-10T14:58:06;99545.52;;;3.96;69.81